Aviation Digital Data Service (ADDS)

Output produced by METARs form (0006 UTC 29 August 2016)
found at http://aviationweather.gov/adds/metars/
 
KILM 282325Z 2900/2924 02007KT P6SM BKN120 
     FM290600 04003KT P6SM SCT010 BKN080 
     FM291400 04007KT P6SM VCSH SCT025 BKN035 
     PROB30 2918/2924 3SM -TSRA BKN025CB